createdAt,value
2017-11-13T00:03:22.016Z," 4.68"
2017-11-13T00:08:18.680Z," 4.60"
2017-11-13T00:13:15.100Z," 4.53"
2017-11-13T00:18:12.567Z," 4.45"
2017-11-13T00:23:08.555Z," 4.52"
2017-11-13T00:28:04.947Z," 4.52"
2017-11-13T00:33:01.287Z," 4.45"
2017-11-13T00:37:57.713Z," 4.53"
2017-11-13T00:42:53.215Z," 4.42"
2017-11-13T00:47:48.952Z," 4.49"
2017-11-13T00:52:45.638Z," 4.41"
2017-11-13T00:57:41.876Z," 4.53"
2017-11-13T01:02:38.533Z," 4.50"
2017-11-13T01:07:34.942Z," 4.41"
2017-11-13T01:12:30.900Z," 4.41"
2017-11-13T01:17:27.627Z," 4.52"
2017-11-13T01:22:23.910Z," 4.49"
2017-11-13T01:27:20.460Z," 4.40"
2017-11-13T01:32:15.892Z," 4.48"
2017-11-13T01:37:13.878Z," 4.48"
2017-11-13T01:42:10.852Z," 4.52"
2017-11-13T01:47:07.251Z," 4.66"
2017-11-13T01:52:03.648Z," 4.52"
2017-11-13T01:56:59.630Z," 4.56"
2017-11-13T02:01:55.054Z," 4.52"
2017-11-13T02:06:52.265Z," 4.67"
2017-11-13T02:11:48.666Z," 4.71"
2017-11-13T02:16:44.833Z," 4.68"
2017-11-13T02:21:40.625Z," 4.75"
2017-11-13T02:26:38.244Z," 4.74"
2017-11-13T02:31:34.516Z," 4.67"
2017-11-13T02:36:31.132Z," 4.77"
2017-11-13T02:41:26.865Z," 4.92"
2017-11-13T02:46:23.888Z," 4.94"
2017-11-13T02:51:20.389Z," 5.07"
2017-11-13T02:56:17.018Z," 5.17"
2017-11-13T03:01:14.128Z," 5.20"
2017-11-13T03:06:11.521Z," 5.23"
2017-11-13T03:11:08.070Z," 5.29"
2017-11-13T03:16:03.115Z," 5.23"
2017-11-13T03:20:59.997Z," 5.25"
2017-11-13T03:25:56.475Z," 5.32"
2017-11-13T03:30:52.891Z," 5.30"
2017-11-13T03:35:48.501Z," 5.43"
2017-11-13T03:40:46.311Z," 5.39"
2017-11-13T03:45:42.757Z," 5.48"
2017-11-13T03:50:42.254Z," 5.47"
2017-11-13T03:55:38.038Z," 5.61"
2017-11-13T04:00:34.505Z," 5.66"
2017-11-13T04:05:30.723Z," 5.76"
2017-11-13T04:10:27.562Z," 5.83"
2017-11-13T04:15:25.190Z," 5.93"
2017-11-13T04:20:22.517Z," 5.98"
2017-11-13T04:25:17.968Z," 5.99"
2017-11-13T04:30:14.647Z," 5.84"
2017-11-13T04:35:10.820Z," 5.75"
2017-11-13T04:40:07.539Z," 5.73"
2017-11-13T04:45:03.815Z," 5.69"
2017-11-13T04:50:00.458Z," 5.59"
2017-11-13T04:54:56.868Z," 5.59"
2017-11-13T04:59:52.822Z," 5.53"
2017-11-13T05:04:49.513Z," 5.48"
2017-11-13T05:09:46.081Z," 5.59"
2017-11-13T05:14:41.420Z," 5.44"
2017-11-13T05:19:38.227Z," 5.68"
2017-11-13T05:24:33.858Z," 5.66"
2017-11-13T05:29:30.404Z," 5.72"
2017-11-13T05:34:27.732Z," 5.62"
2017-11-13T05:39:24.290Z," 5.51"
2017-11-13T05:44:20.861Z," 5.46"
2017-11-13T05:49:18.133Z," 5.47"
2017-11-13T05:54:14.610Z," 5.46"
2017-11-13T05:59:09.973Z," 5.38"
2017-11-13T06:04:06.561Z," 5.36"
2017-11-13T06:09:02.710Z," 5.53"
2017-11-13T06:14:01.032Z," 5.53"
2017-11-13T06:18:57.351Z," 5.48"
2017-11-13T06:23:53.633Z," 5.56"
2017-11-13T06:28:49.932Z," 5.53"
2017-11-13T06:33:45.291Z," 5.43"
2017-11-13T06:38:43.840Z," 5.43"
2017-11-13T06:43:40.183Z," 5.53"
2017-11-13T06:48:36.726Z," 5.47"
2017-11-13T06:53:32.158Z," 5.41"
2017-11-13T06:58:29.064Z," 5.46"
2017-11-13T07:03:25.603Z," 5.51"
2017-11-13T07:08:22.204Z," 5.44"
2017-11-13T07:13:17.601Z," 5.53"
2017-11-13T07:18:14.316Z," 5.50"
2017-11-13T07:23:10.235Z," 5.57"
2017-11-13T07:28:06.065Z," 5.59"
2017-11-13T07:33:02.761Z," 5.59"
2017-11-13T07:37:58.100Z," 5.59"
2017-11-13T07:42:54.783Z," 5.69"
2017-11-13T07:47:50.912Z," 5.69"
2017-11-13T07:52:47.359Z," 5.65"
2017-11-13T07:57:43.043Z," 5.65"
2017-11-13T08:02:40.799Z," 5.73"
2017-11-13T08:07:38.081Z," 5.66"
2017-11-13T08:12:33.323Z," 5.87"
2017-11-13T08:17:30.392Z," 5.76"
2017-11-13T08:22:26.898Z," 5.87"
2017-11-13T08:27:24.743Z," 6.08"
2017-11-13T08:32:22.258Z," 6.39"
2017-11-13T08:37:18.055Z," 6.54"
2017-11-13T08:42:13.888Z," 6.60"
2017-11-13T08:47:11.769Z," 6.72"
2017-11-13T08:52:09.031Z," 6.81"
2017-11-13T08:57:04.334Z," 6.97"
2017-11-13T09:02:01.702Z," 6.95"
2017-11-13T09:06:57.497Z," 7.18"
2017-11-13T09:11:54.554Z," 7.18"
2017-11-13T09:16:50.151Z," 7.28"
2017-11-13T09:21:46.202Z," 7.40"
2017-11-13T09:26:42.752Z," 7.23"
2017-11-13T09:31:43.002Z," 7.18"
2017-11-13T09:36:39.616Z," 7.39"
2017-11-13T09:41:37.635Z," 7.56"
2017-11-13T09:46:33.805Z," 7.69"
2017-11-13T09:51:30.442Z," 7.95"
2017-11-13T09:56:26.016Z," 8.26"
2017-11-13T10:01:23.449Z," 8.58"
2017-11-13T10:06:20.502Z," 8.79"
2017-11-13T10:11:17.585Z," 9.03"
2017-11-13T10:16:14.426Z," 9.06"
2017-11-13T10:21:10.895Z," 8.97"
2017-11-13T10:26:07.380Z," 8.87"
2017-11-13T10:31:02.507Z," 8.69"
2017-11-13T10:36:00.318Z," 8.56"
2017-11-13T10:40:55.821Z," 9.08"
2017-11-13T10:45:51.987Z," 9.46"
2017-11-13T10:50:49.134Z," 9.50"
2017-11-13T10:55:44.583Z," 9.50"
2017-11-13T11:00:40.386Z," 9.46"
2017-11-13T11:05:37.239Z," 9.46"
2017-11-13T11:10:33.772Z," 9.43"
2017-11-13T11:15:30.278Z," 9.29"
2017-11-13T11:20:25.673Z," 9.31"
2017-11-13T11:25:21.414Z," 9.40"
2017-11-13T11:30:17.268Z," 9.41"
2017-11-13T11:35:14.775Z," 9.43"
2017-11-13T11:40:10.214Z," 9.54"
2017-11-13T11:45:06.008Z," 9.47"
2017-11-13T11:50:01.994Z," 9.47"
2017-11-13T11:54:58.846Z," 9.59"
2017-11-13T11:59:54.474Z," 9.58"
2017-11-13T12:04:49.845Z," 9.58"
2017-11-13T12:09:46.641Z," 9.54"
2017-11-13T12:14:43.245Z," 9.58"
2017-11-13T12:19:39.713Z," 9.69"
2017-11-13T12:24:37.183Z," 9.74"
2017-11-13T12:29:33.300Z," 9.76"
2017-11-13T12:34:29.867Z," 9.77"
2017-11-13T12:39:26.585Z," 9.56"
2017-11-13T12:44:23.488Z," 9.51"
2017-11-13T12:49:18.404Z," 9.34"
2017-11-13T12:54:13.912Z," 9.28"
2017-11-13T12:59:10.051Z," 9.34"
2017-11-13T13:04:06.785Z," 9.46"
2017-11-13T13:09:03.678Z," 9.66"
2017-11-13T13:13:59.623Z," 9.98"
2017-11-13T13:18:58.131Z,10.01
2017-11-13T13:23:54.398Z," 9.97"
2017-11-13T13:28:50.815Z," 9.84"
2017-11-13T13:33:47.339Z," 9.92"
2017-11-13T13:38:43.797Z," 9.92"
2017-11-13T13:43:41.398Z,10.07
2017-11-13T13:48:37.851Z,10.02
2017-11-13T13:53:33.795Z," 9.92"
2017-11-13T13:58:29.419Z," 9.76"
2017-11-13T14:03:27.779Z," 9.77"
2017-11-13T14:08:23.957Z," 9.51"
2017-11-13T14:13:20.475Z," 9.64"
2017-11-13T14:18:15.709Z," 9.47"
2017-11-13T14:23:11.670Z," 9.44"
2017-11-13T14:28:07.236Z," 9.40"
2017-11-13T14:33:02.868Z," 9.26"
2017-11-13T14:37:58.649Z," 9.14"
2017-11-13T14:42:55.363Z," 9.03"
2017-11-13T14:47:51.461Z," 9.00"
2017-11-13T14:52:46.727Z," 8.89"
2017-11-13T14:57:43.673Z," 8.91"
2017-11-13T15:02:39.344Z," 8.79"
2017-11-13T15:07:34.942Z," 8.64"
2017-11-13T15:12:31.796Z," 8.69"
2017-11-13T15:17:28.254Z," 8.66"
2017-11-13T15:22:24.917Z," 8.45"
2017-11-13T15:27:21.537Z," 8.30"
2017-11-13T15:32:19.148Z," 8.24"
2017-11-13T15:37:15.350Z," 8.18"
2017-11-13T15:42:11.883Z," 8.23"
2017-11-13T15:47:08.356Z," 8.09"
2017-11-13T15:52:03.721Z," 8.00"
2017-11-13T15:56:59.827Z," 7.87"
2017-11-13T16:01:57.516Z," 7.83"
2017-11-13T16:06:54.801Z," 7.79"
2017-11-13T16:11:50.188Z," 7.70"
2017-11-13T16:16:46.920Z," 7.72"
2017-11-13T16:21:42.477Z," 7.75"
2017-11-13T16:26:38.241Z," 7.80"
2017-11-13T16:31:34.034Z," 7.75"
2017-11-13T16:36:30.685Z," 7.75"
2017-11-13T16:41:27.362Z," 7.76"
2017-11-13T16:46:22.852Z," 7.82"
2017-11-13T16:51:18.681Z," 7.73"
2017-11-13T16:56:15.376Z," 7.72"
2017-11-13T17:01:12.912Z," 7.73"
2017-11-13T17:06:10.212Z," 7.82"
2017-11-13T17:11:06.637Z," 7.87"
2017-11-13T17:16:03.022Z," 7.94"
2017-11-13T17:20:58.441Z," 7.95"
2017-11-13T17:25:54.264Z," 7.95"
2017-11-13T17:30:51.207Z," 7.85"
2017-11-13T17:35:48.307Z," 7.83"
2017-11-13T17:40:43.515Z," 7.85"
2017-11-13T17:45:39.354Z," 7.77"
2017-11-13T17:50:35.903Z," 7.66"
2017-11-13T17:55:36.158Z," 7.73"
2017-11-13T18:00:31.825Z," 7.63"
2017-11-13T18:05:30.072Z," 7.56"
2017-11-13T18:10:25.205Z," 7.60"
2017-11-13T18:15:21.025Z," 7.58"
2017-11-13T18:20:18.122Z," 7.54"
2017-11-13T18:25:14.484Z," 7.47"
2017-11-13T18:30:11.281Z," 7.40"
2017-11-13T18:35:09.525Z," 7.31"
2017-11-13T18:40:07.426Z," 7.28"
2017-11-13T18:45:02.541Z," 7.32"
2017-11-13T18:50:00.466Z," 7.28"
2017-11-13T18:54:56.078Z," 7.36"
2017-11-13T18:59:52.708Z," 7.31"
2017-11-13T19:04:48.984Z," 7.29"
2017-11-13T19:09:45.782Z," 7.31"
2017-11-13T19:14:42.305Z," 7.20"
2017-11-13T19:19:38.650Z," 7.18"
2017-11-13T19:24:34.743Z," 7.05"
2017-11-13T19:29:30.370Z," 6.97"
2017-11-13T19:34:27.093Z," 6.87"
2017-11-13T19:39:23.493Z," 6.67"
2017-11-13T19:44:19.691Z," 6.70"
2017-11-13T19:49:15.372Z," 6.67"
2017-11-13T19:54:13.616Z," 6.62"
2017-11-13T19:59:09.848Z," 6.48"
2017-11-13T20:04:07.000Z," 6.57"
2017-11-13T20:09:03.268Z," 6.54"
2017-11-13T20:13:59.669Z," 6.42"
2017-11-13T20:18:56.187Z," 6.35"
2017-11-13T20:23:52.535Z," 6.26"
2017-11-13T20:28:50.134Z," 6.28"
2017-11-13T20:33:47.396Z," 6.12"
2017-11-13T20:38:43.069Z," 6.01"
2017-11-13T20:43:40.580Z," 5.93"
2017-11-13T20:48:35.858Z," 5.98"
2017-11-13T20:53:32.636Z," 5.87"
2017-11-13T20:58:27.967Z," 5.79"
2017-11-13T21:03:24.262Z," 5.75"
2017-11-13T21:08:20.626Z," 5.71"
2017-11-13T21:13:17.761Z," 5.69"
2017-11-13T21:18:14.229Z," 5.54"
2017-11-13T21:23:09.361Z," 5.64"
2017-11-13T21:28:05.864Z," 5.61"
2017-11-13T21:33:01.469Z," 5.57"
2017-11-13T21:37:58.349Z," 5.56"
2017-11-13T21:42:53.947Z," 5.56"
2017-11-13T21:47:50.648Z," 5.43"
2017-11-13T21:52:45.917Z," 5.50"
2017-11-13T21:57:41.580Z," 5.57"
2017-11-13T22:02:37.283Z," 5.48"
2017-11-13T22:07:33.315Z," 5.46"
2017-11-13T22:12:29.978Z," 5.46"
2017-11-13T22:17:28.179Z," 5.53"
2017-11-13T22:22:23.434Z," 5.56"
2017-11-13T22:27:20.155Z," 5.46"
2017-11-13T22:32:15.641Z," 5.39"
2017-11-13T22:37:11.045Z," 5.36"
2017-11-13T22:42:06.805Z," 5.33"
2017-11-13T22:47:02.559Z," 5.35"
2017-11-13T22:51:59.209Z," 5.20"
2017-11-13T22:56:54.730Z," 5.23"
2017-11-13T23:01:51.532Z," 5.17"
2017-11-13T23:06:47.734Z," 5.28"
2017-11-13T23:11:43.249Z," 5.21"
2017-11-13T23:16:39.964Z," 5.28"
2017-11-13T23:21:36.527Z," 5.20"
2017-11-13T23:26:32.080Z," 5.21"
2017-11-13T23:31:27.889Z," 5.05"
2017-11-13T23:36:24.628Z," 5.05"
2017-11-13T23:41:20.320Z," 5.18"
2017-11-13T23:46:17.358Z," 5.11"
2017-11-13T23:51:14.993Z," 5.08"
2017-11-13T23:56:11.027Z," 4.99"
